createdAt,value
2023-05-22T00:00:37.081Z,972.51
2023-05-22T00:01:36.778Z,972.51
2023-05-22T00:02:36.854Z,972.47
2023-05-22T00:03:36.801Z,972.50
2023-05-22T00:04:36.733Z,972.57
2023-05-22T00:05:36.862Z,972.48
2023-05-22T00:06:37.128Z,972.44
2023-05-22T00:07:36.700Z,972.51
2023-05-22T00:08:36.685Z,972.50
2023-05-22T00:09:36.690Z,972.45
2023-05-22T00:10:36.805Z,972.43
2023-05-22T00:11:36.689Z,972.42
2023-05-22T00:12:36.640Z,972.46
2023-05-22T00:13:36.628Z,972.48
2023-05-22T00:14:36.603Z,972.45
2023-05-22T00:15:36.599Z,972.48
2023-05-22T00:16:36.619Z,972.43
2023-05-22T00:17:36.617Z,972.41
2023-05-22T00:18:36.555Z,972.38
2023-05-22T00:19:36.636Z,972.33
2023-05-22T00:20:36.696Z,972.38
2023-05-22T00:21:36.508Z,972.40
2023-05-22T00:22:36.482Z,972.36
2023-05-22T00:23:36.479Z,972.36
2023-05-22T00:24:36.459Z,972.42
2023-05-22T00:25:36.479Z,972.46
2023-05-22T00:26:36.445Z,972.35
2023-05-22T00:27:36.420Z,972.45
2023-05-22T00:28:36.410Z,972.46
2023-05-22T00:29:36.406Z,972.41
2023-05-22T00:30:36.585Z,972.40
2023-05-22T00:31:36.370Z,972.33
2023-05-22T00:32:36.437Z,972.38
2023-05-22T00:33:36.362Z,972.35
2023-05-22T00:34:36.513Z,972.28
2023-05-22T00:35:36.355Z,972.27
2023-05-22T00:36:36.312Z,972.29
2023-05-22T00:37:36.297Z,972.28
2023-05-22T00:38:36.278Z,972.31
2023-05-22T00:39:36.281Z,972.30
2023-05-22T00:40:36.349Z,972.30
2023-05-22T00:41:36.271Z,972.30
2023-05-22T00:42:36.216Z,972.27
2023-05-22T00:43:36.213Z,972.32
2023-05-22T00:44:36.197Z,972.33
2023-05-22T00:45:36.190Z,972.34
2023-05-22T00:46:36.249Z,972.35
2023-05-22T00:47:36.197Z,972.42
2023-05-22T00:48:36.146Z,972.33
2023-05-22T00:49:36.127Z,972.31
2023-05-22T00:50:36.221Z,972.37
2023-05-22T00:51:36.097Z,972.42
2023-05-22T00:52:36.092Z,972.47
2023-05-22T00:53:36.083Z,972.36
2023-05-22T00:54:36.062Z,972.45
2023-05-22T00:55:36.066Z,972.49
2023-05-22T00:56:36.040Z,972.46
2023-05-22T00:57:36.048Z,972.43
2023-05-22T00:58:36.005Z,972.44
2023-05-22T00:59:35.999Z,972.47
2023-05-22T01:00:36.224Z,972.48
2023-05-22T01:01:36.324Z,972.49
2023-05-22T01:02:36.020Z,972.42
2023-05-22T01:03:35.976Z,972.45
2023-05-22T01:04:35.926Z,972.44
2023-05-22T01:05:35.918Z,972.41
2023-05-22T01:06:35.906Z,972.45
2023-05-22T01:07:35.892Z,972.40
2023-05-22T01:08:35.875Z,972.35
2023-05-22T01:09:35.863Z,972.42
2023-05-22T01:10:35.862Z,972.41
2023-05-22T01:11:35.840Z,972.41
2023-05-22T01:12:35.824Z,972.47
2023-05-22T01:13:35.831Z,972.39
2023-05-22T01:14:35.794Z,972.48
2023-05-22T01:15:35.781Z,972.44
2023-05-22T01:16:35.794Z,972.48
2023-05-22T01:17:36.163Z,972.51
2023-05-22T01:18:35.749Z,972.45
2023-05-22T01:19:35.883Z,972.44
2023-05-22T01:20:35.726Z,972.52
2023-05-22T01:21:35.709Z,972.46
2023-05-22T01:22:35.689Z,972.58
2023-05-22T01:23:35.685Z,972.51
2023-05-22T01:24:35.665Z,972.66
2023-05-22T01:25:35.675Z,972.66
2023-05-22T01:26:35.635Z,972.67
2023-05-22T01:27:35.627Z,972.63
2023-05-22T01:28:35.610Z,972.67
2023-05-22T01:29:35.620Z,972.68
2023-05-22T01:30:35.587Z,972.66
2023-05-22T01:31:35.572Z,972.64
2023-05-22T01:32:35.626Z,972.60
2023-05-22T01:33:35.651Z,972.66
2023-05-22T01:34:35.552Z,972.72
2023-05-22T01:35:35.526Z,972.68
2023-05-22T01:36:35.508Z,972.71
2023-05-22T01:37:35.495Z,972.55
2023-05-22T01:38:35.495Z,972.62
2023-05-22T01:39:35.477Z,972.59
2023-05-22T01:40:35.454Z,972.56
2023-05-22T01:41:35.450Z,972.65
2023-05-22T01:42:35.427Z,972.63
2023-05-22T01:43:35.434Z,972.67
2023-05-22T01:44:35.410Z,972.64
2023-05-22T01:45:35.466Z,972.65
2023-05-22T01:46:35.379Z,972.62
2023-05-22T01:47:35.403Z,972.62
2023-05-22T01:48:35.358Z,972.61
2023-05-22T01:49:35.336Z,972.66
2023-05-22T01:50:35.326Z,972.64
2023-05-22T01:51:35.314Z,972.65
2023-05-22T01:52:35.325Z,972.65
2023-05-22T01:53:35.289Z,972.68
2023-05-22T01:54:35.322Z,972.68
2023-05-22T01:55:35.349Z,972.70
2023-05-22T01:56:35.252Z,972.70
2023-05-22T01:57:35.241Z,972.73
2023-05-22T01:58:35.225Z,972.75
2023-05-22T01:59:35.214Z,972.68
2023-05-22T02:00:35.196Z,972.78
2023-05-22T02:01:35.255Z,972.78
2023-05-22T02:02:35.208Z,972.69
2023-05-22T02:03:35.184Z,972.73
2023-05-22T02:04:35.135Z,972.69
2023-05-22T02:05:35.133Z,972.65
2023-05-22T02:06:35.109Z,972.61
2023-05-22T02:07:35.098Z,972.71
2023-05-22T02:08:35.086Z,972.72
2023-05-22T02:09:35.074Z,972.67
2023-05-22T02:10:35.061Z,972.61
2023-05-22T02:11:35.051Z,972.73
2023-05-22T02:12:35.037Z,972.66
2023-05-22T02:13:35.025Z,972.71
2023-05-22T02:14:35.019Z,972.71
2023-05-22T02:15:35.039Z,972.75
2023-05-22T02:16:34.978Z,972.62
2023-05-22T02:17:35.022Z,972.67
2023-05-22T02:18:34.952Z,972.69
2023-05-22T02:19:35.013Z,972.70
2023-05-22T02:20:34.929Z,972.71
2023-05-22T02:21:34.970Z,972.65
2023-05-22T02:22:34.906Z,972.72
2023-05-22T02:23:34.894Z,972.63
2023-05-22T02:24:34.888Z,972.72
2023-05-22T02:25:34.877Z,972.72
2023-05-22T02:26:35.054Z,972.71
2023-05-22T02:27:34.839Z,972.63
2023-05-22T02:28:34.825Z,972.62
2023-05-22T02:29:34.811Z,972.60
2023-05-22T02:30:34.810Z,972.63
2023-05-22T02:31:34.819Z,972.61
2023-05-22T02:32:34.890Z,972.78
2023-05-22T02:33:34.981Z,972.74
2023-05-22T02:34:34.754Z,972.73
2023-05-22T02:35:34.739Z,972.75
2023-05-22T02:36:34.736Z,972.81
2023-05-22T02:37:34.717Z,972.80
2023-05-22T02:38:34.696Z,972.75
2023-05-22T02:39:34.695Z,972.77
2023-05-22T02:40:34.672Z,972.72
2023-05-22T02:41:34.664Z,972.73
2023-05-22T02:42:34.643Z,972.74
2023-05-22T02:43:34.628Z,972.76
2023-05-22T02:44:34.616Z,972.78
2023-05-22T02:45:34.614Z,972.80
2023-05-22T02:46:34.647Z,972.72
2023-05-22T02:47:34.626Z,972.78
2023-05-22T02:48:34.564Z,972.75
2023-05-22T02:49:34.581Z,972.76
2023-05-22T02:50:34.564Z,972.85
2023-05-22T02:51:34.520Z,972.86
2023-05-22T02:52:34.512Z,972.89
2023-05-22T02:53:34.500Z,972.89
2023-05-22T02:54:34.484Z,972.95
2023-05-22T02:55:34.467Z,972.87
2023-05-22T02:56:34.458Z,972.92
2023-05-22T02:57:34.442Z,972.90
2023-05-22T02:58:34.427Z,972.87
2023-05-22T02:59:34.424Z,972.88
2023-05-22T03:00:34.410Z,972.91
2023-05-22T03:01:34.453Z,972.98
2023-05-22T03:02:34.571Z,972.95
2023-05-22T03:03:34.508Z,972.92
2023-05-22T03:04:34.355Z,972.94
2023-05-22T03:05:34.376Z,972.94
2023-05-22T03:06:34.360Z,972.91
2023-05-22T03:07:34.310Z,972.96
2023-05-22T03:08:34.301Z,973.01
2023-05-22T03:09:34.312Z,972.99
2023-05-22T03:10:34.265Z,973.02
2023-05-22T03:11:34.480Z,972.95
2023-05-22T03:12:34.244Z,973.01
2023-05-22T03:13:34.236Z,972.98
2023-05-22T03:14:34.227Z,972.91
2023-05-22T03:15:34.217Z,972.87
2023-05-22T03:16:34.277Z,972.90
2023-05-22T03:17:34.191Z,972.94
2023-05-22T03:18:34.173Z,972.89
2023-05-22T03:19:34.192Z,972.88
2023-05-22T03:20:34.140Z,972.86
2023-05-22T03:21:34.156Z,972.88
2023-05-22T03:22:34.109Z,972.87
2023-05-22T03:23:34.103Z,972.82
2023-05-22T03:24:34.289Z,972.88
2023-05-22T03:25:34.077Z,972.87
2023-05-22T03:26:34.069Z,972.87
2023-05-22T03:27:34.046Z,972.79
2023-05-22T03:28:34.065Z,972.78
2023-05-22T03:29:34.037Z,972.77
2023-05-22T03:30:34.024Z,972.81
2023-05-22T03:31:34.011Z,972.84
2023-05-22T03:32:34.051Z,972.84
2023-05-22T03:33:34.022Z,972.82
2023-05-22T03:34:33.966Z,972.82
2023-05-22T03:35:33.964Z,972.79
2023-05-22T03:36:34.039Z,972.86
2023-05-22T03:37:33.943Z,972.79
2023-05-22T03:38:33.907Z,972.79
2023-05-22T03:39:33.893Z,972.80
2023-05-22T03:40:33.877Z,972.81
2023-05-22T03:41:33.879Z,972.84
2023-05-22T03:42:33.861Z,972.80
2023-05-22T03:43:33.840Z,972.80
2023-05-22T03:44:33.845Z,972.75
2023-05-22T03:45:33.855Z,972.71
2023-05-22T03:46:33.840Z,972.73
2023-05-22T03:47:33.829Z,972.74
2023-05-22T03:48:33.793Z,972.69
2023-05-22T03:49:33.777Z,972.75
2023-05-22T03:50:33.747Z,972.76
2023-05-22T03:51:33.750Z,972.65
2023-05-22T03:52:33.729Z,972.74
2023-05-22T03:53:33.736Z,972.74
2023-05-22T03:54:33.706Z,972.70
2023-05-22T03:55:33.697Z,972.71
2023-05-22T03:56:33.696Z,972.76
2023-05-22T03:57:33.663Z,972.74
2023-05-22T03:58:33.643Z,972.74
2023-05-22T03:59:33.638Z,972.73
2023-05-22T04:00:33.621Z,972.73
2023-05-22T04:01:33.613Z,972.74
2023-05-22T04:02:33.650Z,972.78
2023-05-22T04:03:33.644Z,972.68
2023-05-22T04:04:33.824Z,972.75
2023-05-22T04:05:33.630Z,972.70
2023-05-22T04:06:33.536Z,972.66
2023-05-22T04:07:33.525Z,972.63
2023-05-22T04:08:33.508Z,972.56
2023-05-22T04:09:33.528Z,972.75
2023-05-22T04:10:33.492Z,972.74
2023-05-22T04:11:33.473Z,972.69
2023-05-22T04:12:33.459Z,972.72
2023-05-22T04:13:33.453Z,972.70
2023-05-22T04:14:33.434Z,972.69
2023-05-22T04:15:33.424Z,972.72
2023-05-22T04:16:33.443Z,972.72
2023-05-22T04:17:33.663Z,972.78
2023-05-22T04:18:33.376Z,972.76
2023-05-22T04:19:33.424Z,972.79
2023-05-22T04:20:33.350Z,972.79
2023-05-22T04:21:33.339Z,972.77
2023-05-22T04:22:33.337Z,972.82
2023-05-22T04:23:33.317Z,972.89
2023-05-22T04:24:33.296Z,972.80
2023-05-22T04:25:33.306Z,972.71
2023-05-22T04:26:33.282Z,972.71
2023-05-22T04:27:33.459Z,972.73
2023-05-22T04:28:33.252Z,972.75
2023-05-22T04:29:33.244Z,972.74
2023-05-22T04:30:33.218Z,972.77
2023-05-22T04:31:33.227Z,972.78
2023-05-22T04:32:33.232Z,972.81
2023-05-22T04:33:33.173Z,972.84
2023-05-22T04:34:33.164Z,972.89
2023-05-22T04:35:33.165Z,972.87
2023-05-22T04:36:33.145Z,972.91
2023-05-22T04:37:33.130Z,972.89
2023-05-22T04:38:33.115Z,972.84
2023-05-22T04:39:33.102Z,972.94
2023-05-22T04:40:33.089Z,972.90
2023-05-22T04:41:33.094Z,972.93
2023-05-22T04:42:33.058Z,973.00
2023-05-22T04:43:33.039Z,972.94
2023-05-22T04:44:33.030Z,972.94
2023-05-22T04:45:33.153Z,972.85
2023-05-22T04:46:33.060Z,972.96
2023-05-22T04:47:33.043Z,972.99
2023-05-22T04:48:32.980Z,972.96
2023-05-22T04:49:32.963Z,972.92
2023-05-22T04:50:33.087Z,972.97
2023-05-22T04:51:32.942Z,972.94
2023-05-22T04:52:32.921Z,973.00
2023-05-22T04:53:33.056Z,973.01
2023-05-22T04:54:32.896Z,972.99
2023-05-22T04:55:32.883Z,973.04
2023-05-22T04:56:36.997Z,972.96
2023-05-22T04:57:32.877Z,972.98
2023-05-22T04:58:32.849Z,972.97
2023-05-22T04:59:32.826Z,972.92
2023-05-22T05:00:32.845Z,973.02
2023-05-22T05:01:33.642Z,973.02
2023-05-22T05:02:32.934Z,973.06
2023-05-22T05:03:32.836Z,972.99
2023-05-22T05:04:32.773Z,973.02
2023-05-22T05:05:32.747Z,973.00
2023-05-22T05:06:32.737Z,973.00
2023-05-22T05:07:32.723Z,972.95
2023-05-22T05:08:32.953Z,972.94
2023-05-22T05:09:32.702Z,972.90
2023-05-22T05:10:32.683Z,972.86
2023-05-22T05:11:32.670Z,972.95
2023-05-22T05:12:32.653Z,972.95
2023-05-22T05:13:32.663Z,972.93
2023-05-22T05:14:32.628Z,972.97
2023-05-22T05:15:32.610Z,972.96
2023-05-22T05:16:32.651Z,972.97
2023-05-22T05:17:32.591Z,972.96
2023-05-22T05:18:32.873Z,972.91
2023-05-22T05:19:34.776Z,972.90
2023-05-22T05:20:32.546Z,972.81
2023-05-22T05:21:32.535Z,972.84
2023-05-22T05:22:32.525Z,972.85
2023-05-22T05:23:32.506Z,972.87
2023-05-22T05:24:32.491Z,972.86
2023-05-22T05:25:32.472Z,972.90
2023-05-22T05:26:32.462Z,972.96
2023-05-22T05:27:32.455Z,973.03
2023-05-22T05:28:32.447Z,973.00
2023-05-22T05:29:32.450Z,972.99
2023-05-22T05:30:32.434Z,973.03
2023-05-22T05:31:32.405Z,973.04
2023-05-22T05:32:32.431Z,973.00
2023-05-22T05:33:32.373Z,972.97
2023-05-22T05:34:32.368Z,973.02
2023-05-22T05:35:32.345Z,972.98
2023-05-22T05:36:32.337Z,973.02
2023-05-22T05:37:32.322Z,973.09
2023-05-22T05:38:32.307Z,973.07
2023-05-22T05:39:32.291Z,973.18
2023-05-22T05:40:32.278Z,973.15
2023-05-22T05:41:32.260Z,973.20
2023-05-22T05:42:32.286Z,973.14
2023-05-22T05:43:32.237Z,973.11
2023-05-22T05:44:32.228Z,973.18
2023-05-22T05:45:32.237Z,973.11
2023-05-22T05:46:32.283Z,973.01
2023-05-22T05:47:32.242Z,973.06
2023-05-22T05:48:32.178Z,973.07
2023-05-22T05:49:34.934Z,973.13
2023-05-22T05:50:32.155Z,973.10
2023-05-22T05:51:32.217Z,973.14
2023-05-22T05:52:32.121Z,973.13
2023-05-22T05:53:32.106Z,973.15
2023-05-22T05:54:32.102Z,973.18
2023-05-22T05:55:33.899Z,973.03
2023-05-22T05:56:32.071Z,973.06
2023-05-22T05:57:32.057Z,973.04
2023-05-22T05:58:32.045Z,973.15
2023-05-22T05:59:32.139Z,973.15
2023-05-22T06:00:32.020Z,973.16
2023-05-22T06:01:32.141Z,973.13
2023-05-22T06:02:32.023Z,973.19
2023-05-22T06:03:32.123Z,973.12
2023-05-22T06:04:31.954Z,973.07
2023-05-22T06:05:31.994Z,973.04
2023-05-22T06:06:31.931Z,973.11
2023-05-22T06:07:31.918Z,973.07
2023-05-22T06:08:31.904Z,973.15
2023-05-22T06:09:31.894Z,973.10
2023-05-22T06:10:31.880Z,973.19
2023-05-22T06:11:31.871Z,973.21
2023-05-22T06:12:32.031Z,973.11
2023-05-22T06:13:31.862Z,973.20
2023-05-22T06:14:31.828Z,973.16
2023-05-22T06:15:31.814Z,973.19
2023-05-22T06:16:31.896Z,973.17
2023-05-22T06:17:31.882Z,973.20
2023-05-22T06:18:31.780Z,973.25
2023-05-22T06:19:31.846Z,973.25
2023-05-22T06:20:31.757Z,973.26
2023-05-22T06:21:31.732Z,973.20
2023-05-22T06:22:31.746Z,973.24
2023-05-22T06:23:31.707Z,973.20
2023-05-22T06:24:31.694Z,973.12
2023-05-22T06:25:31.684Z,973.14
2023-05-22T06:26:32.060Z,973.12
2023-05-22T06:27:31.659Z,973.17
2023-05-22T06:28:31.644Z,973.16
2023-05-22T06:29:31.642Z,973.17
2023-05-22T06:30:43.440Z,973.15
2023-05-22T06:31:32.629Z,973.18
2023-05-22T06:32:31.828Z,973.19
2023-05-22T06:33:31.700Z,973.14
2023-05-22T06:34:31.627Z,973.14
2023-05-22T06:35:31.555Z,973.19
2023-05-22T06:36:31.543Z,973.13
2023-05-22T06:37:31.566Z,973.09
2023-05-22T06:38:31.519Z,973.12
2023-05-22T06:39:32.200Z,973.13
2023-05-22T06:40:31.534Z,973.12
2023-05-22T06:41:31.467Z,973.09
2023-05-22T06:42:31.457Z,973.14
2023-05-22T06:43:31.440Z,973.14
2023-05-22T06:44:31.431Z,973.09
2023-05-22T06:45:31.497Z,973.10
2023-05-22T06:46:31.512Z,973.13
2023-05-22T06:47:31.406Z,973.18
2023-05-22T06:48:31.377Z,973.17
2023-05-22T06:49:31.458Z,973.13
2023-05-22T06:50:31.353Z,973.08
2023-05-22T06:51:31.342Z,973.13
2023-05-22T06:52:31.323Z,973.15
2023-05-22T06:53:31.322Z,973.15
2023-05-22T06:54:31.301Z,973.27
2023-05-22T06:55:31.638Z,973.14
2023-05-22T06:56:31.284Z,973.08
2023-05-22T06:57:31.263Z,973.13
2023-05-22T06:58:31.487Z,973.15
2023-05-22T06:59:31.226Z,973.11
2023-05-22T07:00:31.221Z,973.07
2023-05-22T07:01:31.240Z,973.04
2023-05-22T07:02:31.279Z,973.02
2023-05-22T07:03:31.184Z,973.05
2023-05-22T07:04:31.171Z,973.08
2023-05-22T07:05:31.363Z,973.12
2023-05-22T07:06:31.162Z,973.09
2023-05-22T07:07:31.138Z,973.09
2023-05-22T07:08:31.116Z,973.14
2023-05-22T07:09:31.101Z,973.18
2023-05-22T07:10:31.381Z,973.18
2023-05-22T07:11:31.079Z,973.22
2023-05-22T07:12:31.058Z,973.21
2023-05-22T07:13:31.044Z,973.16
2023-05-22T07:14:31.030Z,973.19
2023-05-22T07:15:31.020Z,973.21
2023-05-22T07:16:31.080Z,973.27
2023-05-22T07:17:31.007Z,973.25
2023-05-22T07:18:30.983Z,973.28
2023-05-22T07:19:31.056Z,973.17
2023-05-22T07:20:30.958Z,973.23
2023-05-22T07:21:30.963Z,973.22
2023-05-22T07:22:30.925Z,973.20
2023-05-22T07:23:30.918Z,973.23
2023-05-22T07:24:30.911Z,973.24
2023-05-22T07:25:30.888Z,973.21
2023-05-22T07:26:30.874Z,973.20
2023-05-22T07:27:30.864Z,973.12
2023-05-22T07:28:30.850Z,973.18
2023-05-22T07:29:30.838Z,973.17
2023-05-22T07:30:30.820Z,973.12
2023-05-22T07:31:30.831Z,973.10
2023-05-22T07:32:30.840Z,973.06
2023-05-22T07:33:30.784Z,973.12
2023-05-22T07:34:30.784Z,973.10
2023-05-22T07:35:30.749Z,973.12
2023-05-22T07:36:30.739Z,973.00
2023-05-22T07:37:30.780Z,972.97
2023-05-22T07:38:31.170Z,972.99
2023-05-22T07:39:30.707Z,972.97
2023-05-22T07:40:30.697Z,972.98
2023-05-22T07:41:30.676Z,972.98
2023-05-22T07:42:30.670Z,972.98
2023-05-22T07:43:30.659Z,972.93
2023-05-22T07:44:30.638Z,973.01
2023-05-22T07:45:30.931Z,973.04
2023-05-22T07:46:30.652Z,973.02
2023-05-22T07:47:30.603Z,972.94
2023-05-22T07:48:30.585Z,972.89
2023-05-22T07:49:30.568Z,972.85
2023-05-22T07:50:30.664Z,972.95
2023-05-22T07:51:30.545Z,972.94
2023-05-22T07:52:30.546Z,972.92
2023-05-22T07:53:30.536Z,972.89
2023-05-22T07:54:30.708Z,972.89
2023-05-22T07:55:30.494Z,972.87
2023-05-22T07:56:30.484Z,972.89
2023-05-22T07:57:30.472Z,972.91
2023-05-22T07:58:30.459Z,972.81
2023-05-22T07:59:30.455Z,972.80
2023-05-22T08:00:30.434Z,972.82
2023-05-22T08:01:30.416Z,972.87
2023-05-22T08:02:30.517Z,972.77
2023-05-22T08:03:30.506Z,972.83
2023-05-22T08:04:30.438Z,972.84
2023-05-22T08:05:30.406Z,972.72
2023-05-22T08:06:30.349Z,972.81
2023-05-22T08:07:30.342Z,972.80
2023-05-22T08:08:31.806Z,972.85
2023-05-22T08:09:30.456Z,972.87
2023-05-22T08:10:46.392Z,972.83
2023-05-22T08:11:31.337Z,972.85
2023-05-22T08:12:30.283Z,972.88
2023-05-22T08:13:30.356Z,972.90
2023-05-22T08:14:30.252Z,972.80
2023-05-22T08:15:30.231Z,972.84
2023-05-22T08:16:30.414Z,972.81
2023-05-22T08:17:30.235Z,972.95
2023-05-22T08:18:30.500Z,972.76
2023-05-22T08:19:30.265Z,972.84
2023-05-22T08:20:30.232Z,972.83
2023-05-22T08:21:30.179Z,972.73
2023-05-22T08:22:30.143Z,972.72
2023-05-22T08:23:30.291Z,972.69
2023-05-22T08:24:30.120Z,972.65
2023-05-22T08:25:30.136Z,972.76
2023-05-22T08:26:31.465Z,972.73
2023-05-22T08:27:30.075Z,972.66
2023-05-22T08:28:30.070Z,972.63
2023-05-22T08:29:30.051Z,972.56
2023-05-22T08:30:30.077Z,972.65
2023-05-22T08:31:30.141Z,972.58
2023-05-22T08:32:31.380Z,972.63
2023-05-22T08:33:30.009Z,972.66
2023-05-22T08:34:30.048Z,972.66
2023-05-22T08:35:29.982Z,972.61
2023-05-22T08:36:29.975Z,972.61
2023-05-22T08:37:29.954Z,972.58
2023-05-22T08:38:29.950Z,972.54
2023-05-22T08:39:29.934Z,972.63
2023-05-22T08:40:29.965Z,972.59
2023-05-22T08:41:30.483Z,972.48
2023-05-22T08:42:29.945Z,972.52
2023-05-22T08:43:29.990Z,972.56
2023-05-22T08:44:29.929Z,972.54
2023-05-22T08:45:29.925Z,972.69
2023-05-22T08:46:30.015Z,972.63
2023-05-22T08:47:29.952Z,972.57
2023-05-22T08:48:29.876Z,972.50
2023-05-22T08:49:29.839Z,972.42
2023-05-22T08:50:29.806Z,972.43
2023-05-22T08:51:29.781Z,972.47
2023-05-22T08:52:29.827Z,972.45
2023-05-22T08:53:29.759Z,972.41
2023-05-22T08:54:29.746Z,972.55
2023-05-22T08:55:29.745Z,972.55
2023-05-22T08:56:29.857Z,972.52
2023-05-22T08:57:29.735Z,972.57
2023-05-22T08:58:29.701Z,972.57
2023-05-22T08:59:29.692Z,972.47
2023-05-22T09:00:29.686Z,972.47
2023-05-22T09:01:29.848Z,972.43
2023-05-22T09:02:29.694Z,972.50
2023-05-22T09:03:29.801Z,972.47
2023-05-22T09:04:29.628Z,972.43
2023-05-22T09:05:29.618Z,972.45
2023-05-22T09:06:29.618Z,972.42
2023-05-22T09:07:29.594Z,972.43
2023-05-22T09:08:29.584Z,972.41
2023-05-22T09:09:29.599Z,972.30
2023-05-22T09:10:29.551Z,972.33
2023-05-22T09:11:29.593Z,972.29
2023-05-22T09:12:29.528Z,972.30
2023-05-22T09:13:29.575Z,972.28
2023-05-22T09:14:29.510Z,972.31
2023-05-22T09:15:29.501Z,972.33
2023-05-22T09:16:29.538Z,972.37
2023-05-22T09:17:29.490Z,972.35
2023-05-22T09:18:29.465Z,972.32
2023-05-22T09:19:29.521Z,972.22
2023-05-22T09:20:29.435Z,972.26
2023-05-22T09:21:30.628Z,972.21
2023-05-22T09:22:29.470Z,972.20
2023-05-22T09:23:29.403Z,972.14
2023-05-22T09:24:29.395Z,972.16
2023-05-22T09:25:29.386Z,972.12
2023-05-22T09:26:29.368Z,972.18
2023-05-22T09:27:29.356Z,972.07
2023-05-22T09:28:29.343Z,972.07
2023-05-22T09:29:29.365Z,972.09
2023-05-22T09:30:29.319Z,972.05
2023-05-22T09:31:29.473Z,972.14
2023-05-22T09:32:29.331Z,972.09
2023-05-22T09:33:29.291Z,972.08
2023-05-22T09:34:29.269Z,972.09
2023-05-22T09:35:29.263Z,972.06
2023-05-22T09:36:29.252Z,972.04
2023-05-22T09:37:29.240Z,972.04
2023-05-22T09:38:29.236Z,971.98
2023-05-22T09:39:29.220Z,971.99
2023-05-22T09:40:29.206Z,972.05
2023-05-22T09:41:29.199Z,972.02
2023-05-22T09:42:29.188Z,972.04
2023-05-22T09:43:29.169Z,972.01
2023-05-22T09:44:29.153Z,972.01
2023-05-22T09:45:29.165Z,972.02
2023-05-22T09:46:29.181Z,972.07
2023-05-22T09:47:29.177Z,972.06
2023-05-22T09:48:29.120Z,972.05
2023-05-22T09:49:29.104Z,972.03
2023-05-22T09:50:29.087Z,972.01
2023-05-22T09:51:29.075Z,972.05
2023-05-22T09:52:29.062Z,972.06
2023-05-22T09:53:29.056Z,972.05
2023-05-22T09:54:29.090Z,971.96
2023-05-22T09:55:29.040Z,971.95
2023-05-22T09:56:38.600Z,972.01
2023-05-22T09:57:30.033Z,971.96
2023-05-22T09:58:28.992Z,972.01
2023-05-22T09:59:28.994Z,972.00
2023-05-22T10:00:28.968Z,971.97
2023-05-22T10:01:29.064Z,971.98
2023-05-22T10:02:29.020Z,971.92
2023-05-22T10:03:28.946Z,971.84
2023-05-22T10:04:28.953Z,971.88
2023-05-22T10:05:28.923Z,971.87
2023-05-22T10:06:28.904Z,971.81
2023-05-22T10:07:28.893Z,971.79
2023-05-22T10:08:28.977Z,971.77
2023-05-22T10:09:28.873Z,971.82
2023-05-22T10:10:28.854Z,971.74
2023-05-22T10:11:28.850Z,971.81
2023-05-22T10:12:29.034Z,971.78
2023-05-22T10:13:28.829Z,971.81
2023-05-22T10:14:29.640Z,971.77
2023-05-22T10:15:28.810Z,971.78
2023-05-22T10:16:28.854Z,971.83
2023-05-22T10:17:28.915Z,971.71
2023-05-22T10:18:28.763Z,971.77
2023-05-22T10:19:28.804Z,971.70
2023-05-22T10:20:28.764Z,971.80
2023-05-22T10:21:28.742Z,971.76
2023-05-22T10:22:28.730Z,971.78
2023-05-22T10:23:28.714Z,971.78
2023-05-22T10:24:28.700Z,971.76
2023-05-22T10:25:28.704Z,971.68
2023-05-22T10:26:28.682Z,971.72
2023-05-22T10:27:28.670Z,971.74
2023-05-22T10:28:28.653Z,971.69
2023-05-22T10:29:28.646Z,971.72
2023-05-22T10:30:28.637Z,971.66
2023-05-22T10:31:28.626Z,971.67
2023-05-22T10:32:28.656Z,971.62
2023-05-22T10:33:28.778Z,971.71
2023-05-22T10:34:28.607Z,971.63
2023-05-22T10:35:28.580Z,971.72
2023-05-22T10:36:28.573Z,971.71
2023-05-22T10:37:28.565Z,971.60
2023-05-22T10:38:28.639Z,971.58
2023-05-22T10:39:28.545Z,971.62
2023-05-22T10:40:28.540Z,971.59
2023-05-22T10:41:28.537Z,971.61
2023-05-22T10:42:28.517Z,971.54
2023-05-22T10:43:28.499Z,971.53
2023-05-22T10:44:28.788Z,971.56
2023-05-22T10:45:28.595Z,971.55
2023-05-22T10:46:28.607Z,971.53
2023-05-22T10:47:28.479Z,971.52
2023-05-22T10:48:28.449Z,971.51
2023-05-22T10:49:28.551Z,971.53
2023-05-22T10:50:28.418Z,971.51
2023-05-22T10:51:28.415Z,971.54
2023-05-22T10:52:28.389Z,971.57
2023-05-22T10:53:28.378Z,971.61
2023-05-22T10:54:28.365Z,971.54
2023-05-22T10:55:28.355Z,971.56
2023-05-22T10:56:28.351Z,971.50
2023-05-22T10:57:28.342Z,971.55
2023-05-22T10:58:28.354Z,971.55
2023-05-22T10:59:28.313Z,971.61
2023-05-22T11:00:28.312Z,971.56
2023-05-22T11:01:28.325Z,971.55
2023-05-22T11:02:28.360Z,971.55
2023-05-22T11:03:28.361Z,971.61
2023-05-22T11:04:28.301Z,971.61
2023-05-22T11:05:28.369Z,971.55
2023-05-22T11:06:28.236Z,971.55
2023-05-22T11:07:28.225Z,971.54
2023-05-22T11:08:28.199Z,971.65
2023-05-22T11:09:28.194Z,971.54
2023-05-22T11:10:28.180Z,971.55
2023-05-22T11:11:28.179Z,971.63
2023-05-22T11:12:28.157Z,971.67
2023-05-22T11:13:29.252Z,971.59
2023-05-22T11:14:28.147Z,971.59
2023-05-22T11:15:28.135Z,971.56
2023-05-22T11:16:28.175Z,971.55
2023-05-22T11:17:28.203Z,971.53
2023-05-22T11:18:28.095Z,971.50
2023-05-22T11:19:28.134Z,971.48
2023-05-22T11:20:28.071Z,971.52
2023-05-22T11:21:28.181Z,971.51
2023-05-22T11:22:28.047Z,971.45
2023-05-22T11:23:28.060Z,971.46
2023-05-22T11:24:28.065Z,971.40
2023-05-22T11:25:28.030Z,971.40
2023-05-22T11:26:28.282Z,971.36
2023-05-22T11:27:28.052Z,971.33
2023-05-22T11:28:27.984Z,971.38
2023-05-22T11:29:27.984Z,971.29
2023-05-22T11:30:27.964Z,971.33
2023-05-22T11:31:27.969Z,971.36
2023-05-22T11:32:27.938Z,971.22
2023-05-22T11:33:27.932Z,971.40
2023-05-22T11:34:28.074Z,971.38
2023-05-22T11:35:27.903Z,971.36
2023-05-22T11:36:27.904Z,971.26
2023-05-22T11:37:28.011Z,971.20
2023-05-22T11:38:27.880Z,971.21
2023-05-22T11:39:27.874Z,971.19
2023-05-22T11:40:27.847Z,971.19
2023-05-22T11:41:27.841Z,971.18
2023-05-22T11:42:27.826Z,971.20
2023-05-22T11:43:27.813Z,971.23
2023-05-22T11:44:27.862Z,971.20
2023-05-22T11:45:27.796Z,971.23
2023-05-22T11:46:27.861Z,971.29
2023-05-22T11:47:27.778Z,971.24
2023-05-22T11:48:27.753Z,971.30
2023-05-22T11:49:27.744Z,971.31
2023-05-22T11:50:40.967Z,971.26
2023-05-22T11:51:28.781Z,971.26
2023-05-22T11:52:27.714Z,971.28
2023-05-22T11:53:27.856Z,971.29
2023-05-22T11:54:27.689Z,971.38
2023-05-22T11:55:27.673Z,971.25
2023-05-22T11:56:27.661Z,971.27
2023-05-22T11:57:27.651Z,971.26
2023-05-22T11:58:27.634Z,971.32
2023-05-22T11:59:27.621Z,971.22
2023-05-22T12:00:27.647Z,971.30
2023-05-22T12:01:27.602Z,971.26
2023-05-22T12:02:27.696Z,971.26
2023-05-22T12:03:27.686Z,971.26
2023-05-22T12:04:27.563Z,971.22
2023-05-22T12:05:27.550Z,971.19
2023-05-22T12:06:27.559Z,971.24
2023-05-22T12:07:27.527Z,971.25
2023-05-22T12:08:27.517Z,971.25
2023-05-22T12:09:27.634Z,971.25
2023-05-22T12:10:27.491Z,971.25
2023-05-22T12:11:27.489Z,971.22
2023-05-22T12:12:27.460Z,971.21
2023-05-22T12:13:27.461Z,971.28
2023-05-22T12:14:27.440Z,971.20
2023-05-22T12:15:27.442Z,971.26
2023-05-22T12:16:27.492Z,971.23
2023-05-22T12:17:27.457Z,971.23
2023-05-22T12:18:27.405Z,971.20
2023-05-22T12:19:27.459Z,971.23
2023-05-22T12:20:27.366Z,971.26
2023-05-22T12:21:27.362Z,971.21
2023-05-22T12:22:27.357Z,971.22
2023-05-22T12:23:27.332Z,971.31
2023-05-22T12:24:27.352Z,971.27
2023-05-22T12:25:27.430Z,971.14
2023-05-22T12:26:27.295Z,971.27
2023-05-22T12:27:27.291Z,971.18
2023-05-22T12:28:27.515Z,971.27